Time;durP1;ratioP1;P1;durP2;ratioP2;P2;SDS_P1;SDS_P2;PMS_P1;PMS_P2;Temp;Humidity;BMP_temperature;BMP_pressure;BME280_temperature;BME280_humidity;BME280_pressure;Samples;Min_cycle;Max_cycle;Signal;HPM_P1;HPM_P2
2021/10/16 00:02:21;;;;;;;40.92;23.63;;;;;;;5.15;100.00;100484.19;5133613;27;20057;-71
2021/10/16 00:04:49;;;;;;;40.67;23.95;;;;;;;5.19;100.00;100477.00;5133461;27;20057;-72
2021/10/16 00:07:18;;;;;;;46.95;26.02;;;;;;;5.08;100.00;100490.59;5133626;27;20070;-71
2021/10/16 00:09:48;;;;;;;39.28;23.40;;;;;;;5.12;100.00;100486.06;5133460;27;20039;-71
2021/10/16 00:12:16;;;;;;;45.00;24.25;;;;;;;4.90;100.00;100491.19;5133598;27;20484;-70
2021/10/16 00:14:46;;;;;;;42.60;24.30;;;;;;;4.79;100.00;100488.03;5133293;27;20047;-70
2021/10/16 00:17:14;;;;;;;42.13;24.05;;;;;;;4.80;100.00;100492.41;5133325;27;20195;-70
2021/10/16 00:19:43;;;;;;;44.58;25.33;;;;;;;4.74;100.00;100490.00;5133226;27;20042;-70
2021/10/16 00:22:11;;;;;;;45.10;23.95;;;;;;;4.71;100.00;100490.94;5132823;27;20050;-71
2021/10/16 00:24:39;;;;;;;43.28;24.27;;;;;;;4.83;100.00;100489.69;5133011;27;20047;-71
2021/10/16 00:27:08;;;;;;;44.28;23.45;;;;;;;4.95;100.00;100485.78;5132784;27;20043;-70
2021/10/16 00:29:36;;;;;;;47.30;23.98;;;;;;;5.03;100.00;100481.97;5133115;27;20111;-70
2021/10/16 00:32:06;;;;;;;43.72;24.95;;;;;;;4.99;100.00;100479.44;5133190;27;20423;-70
2021/10/16 00:34:34;;;;;;;45.60;25.33;;;;;;;4.92;100.00;100472.63;5133412;27;20394;-70
2021/10/16 00:37:03;;;;;;;43.20;24.25;;;;;;;4.84;100.00;100468.50;5132451;27;20047;-70
2021/10/16 00:39:31;;;;;;;40.97;24.55;;;;;;;4.92;100.00;100475.28;5133093;27;20096;-70
2021/10/16 00:41:59;;;;;;;42.47;23.77;;;;;;;4.86;100.00;100465.78;5132784;27;20051;-71
2021/10/16 00:44:28;;;;;;;45.78;24.33;;;;;;;4.89;100.00;100465.69;5132849;27;20043;-71
2021/10/16 00:46:59;;;;;;;44.70;24.80;;;;;;;4.80;100.00;100464.19;5132816;27;20162;-71
2021/10/16 00:49:30;;;;;;;47.05;25.17;;;;;;;4.79;100.00;100466.91;5132665;27;20042;-70
2021/10/16 00:52:01;;;;;;;40.25;24.50;;;;;;;5.05;100.00;100464.25;5132230;27;20553;-70
2021/10/16 00:54:30;;;;;;;41.33;23.50;;;;;;;5.05;100.00;100458.97;5132429;27;20035;-70
2021/10/16 00:57:00;;;;;;;45.00;24.73;;;;;;;5.03;100.00;100455.53;5132452;27;20043;-71
2021/10/16 00:59:32;;;;;;;45.30;24.85;;;;;;;5.00;100.00;100463.53;5132689;27;20062;-72
2021/10/16 01:02:00;;;;;;;44.50;24.45;;;;;;;5.10;100.00;100462.31;5130896;27;20091;-72
2021/10/16 01:04:30;;;;;;;45.63;25.08;;;;;;;5.13;100.00;100462.22;5132882;27;20047;-72
2021/10/16 01:06:58;;;;;;;46.35;26.13;;;;;;;5.05;100.00;100458.09;5132261;27;20093;-71
2021/10/16 01:09:27;;;;;;;44.40;24.88;;;;;;;5.02;100.00;100451.16;5131134;27;20507;-74
2021/10/16 01:11:57;;;;;;;43.60;24.45;;;;;;;5.02;100.00;100451.16;5132169;27;20043;-74
2021/10/16 01:14:26;;;;;;;41.30;24.08;;;;;;;5.13;100.00;100449.00;5132387;27;20051;-74
2021/10/16 01:16:57;;;;;;;41.90;22.85;;;;;;;5.22;100.00;100431.94;5132013;27;20043;-75
2021/10/16 01:19:28;;;;;;;42.08;23.45;;;;;;;5.27;100.00;100431.78;5132276;27;20050;-74
2021/10/16 01:22:00;;;;;;;45.63;23.65;;;;;;;5.31;100.00;100425.47;5132228;27;20036;-72
2021/10/16 01:24:30;;;;;;;49.22;24.02;;;;;;;5.21;100.00;100419.66;5132657;27;20039;-72
2021/10/16 01:26:58;;;;;;;41.78;24.73;;;;;;;5.03;100.00;100423.78;5132073;27;20156;-73
2021/10/16 01:29:27;;;;;;;45.00;24.95;;;;;;;4.99;100.00;100416.88;5132452;27;20043;-73
2021/10/16 01:32:00;;;;;;;41.30;24.65;;;;;;;4.95;100.00;100417.91;5131620;27;20110;-72
2021/10/16 01:34:28;;;;;;;;;;;;;;;4.94;100.00;100418.81;5132746;28;20073;-73
2021/10/16 01:36:58;;;;;;;39.28;23.10;;;;;;;5.00;100.00;100429.16;5131885;28;19955;-73
2021/10/16 01:39:29;;;;;;;40.22;23.25;;;;;;;5.10;100.00;100420.00;5132210;27;20043;-72
2021/10/16 01:41:57;;;;;;;42.03;23.77;;;;;;;5.31;100.00;100412.25;5132570;27;20138;-72
2021/10/16 01:44:27;;;;;;;38.20;22.65;;;;;;;5.26;100.00;100415.03;5131473;27;20075;-72
2021/10/16 01:46:55;;;;;;;39.97;23.95;;;;;;;5.33;100.00;100421.84;5132125;27;20152;-76
2021/10/16 01:49:23;;;;;;;36.28;21.25;;;;;;;5.45;100.00;100425.81;5132227;27;20122;-72
2021/10/16 01:51:55;;;;;;;41.75;22.98;;;;;;;5.44;100.00;100413.50;5132045;27;20484;-72
2021/10/16 01:54:25;;;;;;;36.30;22.23;;;;;;;5.37;100.00;100428.75;5131921;27;20536;-72
2021/10/16 01:56:53;;;;;;;45.10;22.42;;;;;;;5.41;100.00;100429.50;5132058;27;20054;-72
2021/10/16 01:59:23;;;;;;;41.20;23.30;;;;;;;5.40;100.00;100428.66;5132164;27;20035;-72
2021/10/16 02:02:07;;;;;;;38.13;22.95;;;;;;;5.29;100.00;100435.22;5131606;27;20153;-72
2021/10/16 02:04:35;;;;;;;39.65;23.02;;;;;;;5.34;100.00;100443.88;5131859;27;20054;-72
2021/10/16 02:07:04;;;;;;;42.55;23.40;;;;;;;5.28;100.00;100450.22;5135123;27;20120;-72
2021/10/16 02:09:34;;;;;;;42.67;23.30;;;;;;;5.27;100.00;100452.94;5136031;27;20088;-72
2021/10/16 02:12:02;;;;;;;39.45;23.02;;;;;;;5.18;100.00;100446.19;5135522;27;20510;-72
2021/10/16 02:14:30;;;;;;;40.05;23.63;;;;;;;5.29;100.00;100451.09;5135812;27;20069;-72
2021/10/16 02:16:58;;;;;;;37.45;21.85;;;;;;;5.49;100.00;100443.28;5135308;27;20039;-73
2021/10/16 02:19:27;;;;;;;40.50;23.73;;;;;;;5.41;100.00;100448.88;5135560;27;20067;-71
2021/10/16 02:21:55;;;;;;;38.95;22.60;;;;;;;5.40;100.00;100443.63;5135752;27;20066;-72
2021/10/16 02:24:23;;;;;;;35.35;20.92;;;;;;;5.52;100.00;100443.22;5135623;27;20039;-72
2021/10/16 02:26:53;;;;;;;36.13;21.40;;;;;;;5.53;100.00;100449.38;5135616;27;20043;-70
2021/10/16 02:29:21;;;;;;;39.97;22.00;;;;;;;5.45;100.00;100441.69;5135337;27;20039;-71
2021/10/16 02:31:50;;;;;;;37.58;22.38;;;;;;;5.43;100.00;100440.91;5135386;27;20047;-70
2021/10/16 02:34:18;;;;;;;36.45;22.33;;;;;;;5.32;100.00;100446.56;5135000;27;20047;-71
2021/10/16 02:36:46;;;;;;;41.97;21.92;;;;;;;5.40;100.00;100447.16;5135468;27;20042;-72
2021/10/16 02:39:14;;;;;;;41.33;22.25;;;;;;;5.38;100.00;100442.81;5135345;27;20039;-72
2021/10/16 02:41:44;;;;;;;37.85;22.05;;;;;;;5.34;100.00;100449.16;5135441;27;20541;-71
2021/10/16 02:44:14;;;;;;;34.03;21.40;;;;;;;5.35;100.00;100450.88;5134700;27;20130;-72
2021/10/16 02:46:42;;;;;;;35.30;21.63;;;;;;;5.23;100.00;100457.47;5135194;27;20067;-72
2021/10/16 02:49:13;;;;;;;37.97;21.88;;;;;;;5.25;100.00;100452.13;5135119;27;20047;-71
2021/10/16 02:51:41;;;;;;;37.22;21.38;;;;;;;5.31;100.00;100454.56;5135125;27;20138;-70
2021/10/16 02:54:09;;;;;;;32.80;19.85;;;;;;;5.66;100.00;100454.13;5134559;27;20054;-70
2021/10/16 02:56:38;;;;;;;38.53;22.38;;;;;;;5.65;100.00;100454.19;5134980;27;20496;-71
2021/10/16 02:59:06;;;;;;;37.42;21.55;;;;;;;5.41;100.00;100450.69;5134609;27;20039;-71
2021/10/16 03:01:36;;;;;;;37.63;21.98;;;;;;;5.35;100.00;100456.16;5134899;27;20126;-70
2021/10/16 03:04:05;;;;;;;34.25;20.27;;;;;;;5.54;100.00;100451.94;5134621;27;20513;-71
2021/10/16 03:06:33;;;;;;;37.85;22.20;;;;;;;5.51;100.00;100445.91;5134736;27;20046;-70
2021/10/16 03:09:01;;;;;;;37.63;20.70;;;;;;;5.58;100.00;100448.25;5134331;27;20145;-70
2021/10/16 03:11:30;;;;;;;35.47;21.90;;;;;;;5.73;100.00;100453.00;5134859;27;20438;-71
2021/10/16 03:13:59;;;;;;;35.97;21.33;;;;;;;5.47;100.00;100445.16;5134307;27;20484;-70
2021/10/16 03:16:27;;;;;;;35.90;21.63;;;;;;;5.39;100.00;100437.47;5134436;27;20039;-71
2021/10/16 03:18:59;;;;;;;36.28;21.15;;;;;;;5.50;100.00;100439.75;5134767;27;20039;-73
2021/10/16 03:21:28;;;;;;;35.08;21.00;;;;;;;5.46;100.00;100443.41;5134645;27;20146;-72
2021/10/16 03:23:56;;;;;;;34.47;21.63;;;;;;;5.49;100.00;100443.28;5134341;27;20049;-72
2021/10/16 03:26:24;;;;;;;37.70;21.90;;;;;;;5.64;100.00;100440.09;5134346;27;20039;-73
2021/10/16 03:28:52;;;;;;;35.85;21.40;;;;;;;5.68;100.00;100439.06;5134310;27;20043;-72
2021/10/16 03:31:21;;;;;;;34.60;20.92;;;;;;;5.66;100.00;100435.63;5133815;27;20080;-72
2021/10/16 03:33:49;;;;;;;38.40;21.23;;;;;;;5.62;100.00;100423.44;5134458;27;20039;-70
2021/10/16 03:36:19;;;;;;;34.30;20.70;;;;;;;5.74;100.00;100436.19;5134348;27;20039;-71
2021/10/16 03:38:47;;;;;;;39.60;21.50;;;;;;;5.85;100.00;100426.97;5134350;27;20134;-71
2021/10/16 03:41:15;;;;;;;33.28;20.88;;;;;;;5.88;100.00;100421.56;5133933;27;20393;-70
2021/10/16 03:43:43;;;;;;;36.88;21.02;;;;;;;5.75;100.00;100424.69;5134045;27;20484;-70
2021/10/16 03:46:12;;;;;;;34.08;20.83;;;;;;;5.88;100.00;100426.84;5133783;27;20047;-70
2021/10/16 03:48:40;;;;;;;31.67;19.50;;;;;;;5.99;100.00;100422.06;5133908;27;20460;-71
2021/10/16 03:51:08;;;;;;;32.83;19.38;;;;;;;5.96;100.00;100427.47;5133693;27;20087;-71
2021/10/16 03:53:38;;;;;;;33.55;20.48;;;;;;;5.86;100.00;100426.06;5134136;27;20047;-70
2021/10/16 03:56:06;;;;;;;34.63;19.95;;;;;;;5.84;100.00;100422.63;5133724;27;20049;-71
2021/10/16 03:58:35;;;;;;;32.63;20.83;;;;;;;5.91;100.00;100427.66;5133973;27;20063;-70
2021/10/16 04:01:03;;;;;;;35.88;20.83;;;;;;;5.84;100.00;100428.78;5133648;27;20047;-71
2021/10/16 04:03:32;;;;;;;34.58;20.52;;;;;;;5.89;100.00;100436.56;5133654;27;20077;-70
2021/10/16 04:06:00;;;;;;;34.38;20.08;;;;;;;5.77;100.00;100437.00;5133696;27;20050;-71
2021/10/16 04:08:28;;;;;;;31.42;19.05;;;;;;;5.82;100.00;100435.06;5133077;27;20043;-70
2021/10/16 04:10:59;;;;;;;34.05;19.55;;;;;;;5.94;100.00;100431.97;5133573;27;20047;-70
2021/10/16 04:13:27;;;;;;;33.08;20.35;;;;;;;5.84;100.00;100428.78;5133009;27;20092;-70
2021/10/16 04:15:55;;;;;;;34.92;20.48;;;;;;;5.76;100.00;100441.44;5133252;27;20039;-70
2021/10/16 04:18:23;;;;;;;33.03;19.48;;;;;;;5.71;100.00;100433.66;5133191;27;20498;-70
2021/10/16 04:20:52;;;;;;;31.88;19.85;;;;;;;5.70;100.00;100426.66;5133369;27;20096;-70
2021/10/16 04:23:20;;;;;;;31.13;19.08;;;;;;;5.72;100.00;100424.81;5132863;27;20062;-70
2021/10/16 04:25:49;;;;;;;33.58;19.85;;;;;;;5.74;100.00;100422.97;5133218;27;20044;-70
2021/10/16 04:28:19;;;;;;;32.35;18.67;;;;;;;6.03;100.00;100423.66;5132742;27;20548;-70
2021/10/16 04:30:47;;;;;;;31.55;18.73;;;;;;;6.24;100.00;100421.97;5133080;27;20035;-69
2021/10/16 04:33:15;;;;;;;32.72;18.58;;;;;;;6.18;100.00;100428.38;5132891;27;20083;-71
2021/10/16 04:35:44;;;;;;;30.50;17.95;;;;;;;6.24;100.00;100427.25;5133007;27;20441;-71
2021/10/16 04:38:12;;;;;;;29.73;18.95;;;;;;;6.21;100.00;100432.69;5132716;27;20118;-71
2021/10/16 04:40:41;;;;;;;30.33;18.65;;;;;;;6.48;100.00;100430.72;5132808;27;20035;-71
2021/10/16 04:43:10;;;;;;;32.17;19.17;;;;;;;6.34;100.00;100431.25;5132773;27;20066;-71
2021/10/16 04:45:40;;;;;;;39.47;22.02;;;;;;;6.10;100.00;100434.91;5132886;27;20122;-71
2021/10/16 04:48:08;;;;;;;36.85;21.23;;;;;;;6.12;100.00;100433.91;5132469;27;20091;-76
2021/10/16 04:50:37;;;;;;;37.50;20.10;;;;;;;6.19;100.00;100430.09;5132990;27;20050;-71
2021/10/16 04:53:05;;;;;;;33.60;20.15;;;;;;;6.15;100.00;100433.78;5132679;27;20050;-70
2021/10/16 04:55:33;;;;;;;35.08;19.77;;;;;;;6.20;100.00;100433.63;5132699;27;20041;-70
2021/10/16 04:58:04;;;;;;;35.22;20.45;;;;;;;6.10;100.00;100429.59;5132687;27;20054;-70
2021/10/16 05:00:32;;;;;;;36.30;20.70;;;;;;;6.02;100.00;100440.47;5132034;27;20039;-71
2021/10/16 05:03:02;;;;;;;30.55;18.63;;;;;;;6.00;100.00;100434.38;5132640;27;20039;-73
2021/10/16 05:05:36;;;;;;;35.22;18.45;;;;;;;6.12;100.00;100441.84;5132433;27;20071;-73
2021/10/16 05:08:05;;;;;;;30.92;17.73;;;;;;;6.21;100.00;100445.94;5132402;27;20108;-73
2021/10/16 05:10:34;;;;;;;29.58;18.90;;;;;;;6.31;100.00;100442.84;5132034;27;20491;-73
2021/10/16 05:13:02;;;;;;;30.63;18.70;;;;;;;6.26;100.00;100447.47;5132339;27;20143;-72
2021/10/16 05:15:30;;;;;;;33.72;19.02;;;;;;;6.15;100.00;100449.66;5131968;27;20107;-71
2021/10/16 05:17:58;;;;;;;34.08;19.75;;;;;;;6.11;100.00;100453.38;5132412;27;20130;-71
2021/10/16 05:20:28;;;;;;;31.17;18.67;;;;;;;6.11;100.00;100448.06;5131963;27;20051;-71
2021/10/16 05:22:56;;;;;;;30.52;18.23;;;;;;;6.11;100.00;100450.72;5132453;27;20491;-71
2021/10/16 05:25:24;;;;;;;30.08;18.63;;;;;;;6.12;100.00;100446.28;5131889;27;20043;-71
2021/10/16 05:27:52;;;;;;;31.10;18.38;;;;;;;6.12;100.00;100444.50;5131973;27;20043;-71
2021/10/16 05:30:21;;;;;;;30.88;18.50;;;;;;;6.16;100.00;100447.88;5131710;27;20138;-71
2021/10/16 05:32:49;;;;;;;33.55;19.10;;;;;;;6.18;100.00;100452.22;5132097;27;20552;-73
2021/10/16 05:35:17;;;;;;;30.80;18.27;;;;;;;6.21;100.00;100446.78;5131425;27;20043;-73
2021/10/16 05:37:47;;;;;;;29.40;18.42;;;;;;;6.25;100.00;100443.09;5131690;27;20150;-72
2021/10/16 05:40:15;;;;;;;27.05;17.05;;;;;;;6.26;100.00;100447.47;5133490;27;20046;-71
2021/10/16 05:42:43;;;;;;;30.27;18.50;;;;;;;6.30;100.00;100443.78;5135773;27;20039;-71
2021/10/16 05:45:12;;;;;;;28.70;17.92;;;;;;;6.36;100.00;100449.75;5135999;27;20047;-71
2021/10/16 05:47:43;;;;;;;28.02;17.67;;;;;;;6.38;100.00;100461.16;5135708;27;20070;-72
2021/10/16 05:50:11;;;;;;;29.65;17.45;;;;;;;6.41;100.00;100459.25;5136021;27;20134;-73
2021/10/16 05:52:43;;;;;;;28.23;18.40;;;;;;;6.44;100.00;100460.91;5135569;27;20329;-74
2021/10/16 05:55:12;;;;;;;29.63;18.48;;;;;;;6.49;100.00;100465.13;5135804;27;20065;-73
2021/10/16 05:57:40;;;;;;;27.58;17.38;;;;;;;6.54;100.00;100459.63;5135438;27;20068;-71
2021/10/16 06:00:10;;;;;;;32.55;17.85;;;;;;;6.65;100.00;100465.34;5135477;27;20046;-71
2021/10/16 06:02:39;;;;;;;29.25;17.85;;;;;;;6.76;100.00;100467.59;5135648;27;20046;-72
2021/10/16 06:05:08;;;;;;;27.00;17.70;;;;;;;6.73;100.00;100460.59;5135952;27;20042;-72
2021/10/16 06:07:36;;;;;;;28.98;17.58;;;;;;;6.89;100.00;100482.91;5135155;27;20091;-72
2021/10/16 06:10:07;;;;;;;28.08;16.17;;;;;;;7.06;100.00;100476.03;5135583;27;20047;-71
2021/10/16 06:12:37;;;;;;;31.08;17.80;;;;;;;7.05;100.00;100475.19;5135094;27;20094;-71
2021/10/16 06:15:07;;;;;;;28.33;16.80;;;;;;;7.11;100.00;100479.34;5135658;27;20433;-71
2021/10/16 06:17:35;;;;;;;29.88;17.50;;;;;;;7.13;100.00;100483.66;5135648;27;20831;-72
2021/10/16 06:20:04;;;;;;;27.88;18.00;;;;;;;7.08;100.00;100484.78;5135617;27;20502;-73
2021/10/16 06:22:32;;;;;;;31.35;18.15;;;;;;;6.96;100.00;100480.00;5135186;27;20066;-73
2021/10/16 06:25:04;;;;;;;29.70;17.63;;;;;;;6.96;100.00;100490.63;5135446;27;20413;-71
2021/10/16 06:27:35;;;;;;;29.17;17.33;;;;;;;6.98;100.00;100492.28;5135111;27;20433;-70
2021/10/16 06:30:05;;;;;;;28.88;17.40;;;;;;;7.00;100.00;100489.56;5135503;27;20437;-70
2021/10/16 06:32:35;;;;;;;27.15;17.50;;;;;;;7.04;100.00;100499.09;5135026;27;20492;-70
2021/10/16 06:35:05;;;;;;;30.30;17.38;;;;;;;7.09;100.00;100497.13;5135191;27;20043;-70
2021/10/16 06:37:33;;;;;;;27.50;17.60;;;;;;;7.13;100.00;100498.72;5134862;27;20039;-70
2021/10/16 06:40:02;;;;;;;29.00;16.20;;;;;;;7.16;100.00;100501.25;5135377;27;20130;-70
2021/10/16 06:42:30;;;;;;;24.00;15.57;;;;;;;7.23;100.00;100496.53;5134863;27;20046;-70
2021/10/16 06:44:59;;;;;;;24.42;15.32;;;;;;;7.30;100.00;100498.00;5135584;27;20076;-69
2021/10/16 06:47:28;;;;;;;24.70;15.27;;;;;;;7.32;100.00;100494.34;5134782;27;20050;-70
2021/10/16 06:49:56;;;;;;;24.60;15.32;;;;;;;7.57;100.00;100509.22;5134615;27;20047;-70
2021/10/16 06:52:25;;;;;;;22.90;14.80;;;;;;;7.63;100.00;100504.53;5133972;27;20154;-70
2021/10/16 06:54:53;;;;;;;22.83;15.48;;;;;;;7.69;100.00;100508.69;5135070;27;20035;-69
2021/10/16 06:57:21;;;;;;;23.67;15.02;;;;;;;7.86;100.00;100503.50;5134597;27;20043;-69
2021/10/16 06:59:49;;;;;;;25.25;14.95;;;;;;;7.86;100.00;100503.50;5134629;27;20047;-69
2021/10/16 07:02:18;;;;;;;27.33;16.13;;;;;;;7.84;100.00;100500.03;5134520;27;20171;-70
2021/10/16 07:04:48;;;;;;;22.73;14.63;;;;;;;7.85;100.00;100506.22;5135508;27;20048;-70
2021/10/16 07:07:17;;;;;;;23.10;14.35;;;;;;;7.88;100.00;100498.97;5134481;27;20421;-71
2021/10/16 07:09:45;;;;;;;22.90;14.35;;;;;;;7.99;100.00;100502.00;5136470;27;20043;-70
2021/10/16 07:12:13;;;;;;;26.70;14.57;;;;;;;8.10;100.00;100497.97;5135717;27;20043;-67
2021/10/16 07:14:42;;;;;;;24.02;15.10;;;;;;;8.08;100.00;100507.81;5134307;27;20039;-72
2021/10/16 07:17:13;;;;;;;26.17;14.93;;;;;;;8.21;100.00;100506.34;5132870;27;20506;-72
2021/10/16 07:19:42;;;;;;;27.40;15.35;;;;;;;8.22;100.00;100508.06;5137931;27;20155;-72
2021/10/16 07:22:11;;;;;;;24.40;15.15;;;;;;;8.32;100.00;100509.34;5134207;27;20464;-73
2021/10/16 07:24:39;;;;;;;25.30;16.05;;;;;;;8.44;100.00;100511.47;5133896;27;20039;-71
2021/10/16 07:27:10;;;;;;;25.05;15.43;;;;;;;8.54;100.00;100515.41;5134133;27;20099;-72
2021/10/16 07:29:39;;;;;;;25.85;16.75;;;;;;;8.57;100.00;100514.38;5134109;27;20424;-73
2021/10/16 07:32:07;;;;;;;26.45;16.50;;;;;;;8.77;100.00;100516.09;5134312;27;20055;-76
2021/10/16 07:34:36;;;;;;;24.65;16.63;;;;;;;8.82;99.55;100517.59;5133756;27;20043;-80
2021/10/16 07:37:04;;;;;;;24.75;15.57;;;;;;;8.84;99.17;100517.53;5134377;27;20491;-74
2021/10/16 07:39:34;;;;;;;26.65;16.58;;;;;;;8.82;99.64;100519.41;5133942;27;20039;-77
2021/10/16 07:42:02;;;;;;;25.98;15.93;;;;;;;9.01;98.43;100520.22;5133811;27;20041;-71
2021/10/16 07:44:31;;;;;;;25.55;15.45;;;;;;;9.03;97.68;100515.69;5133955;27;20091;-70
2021/10/16 07:46:59;;;;;;;27.75;17.25;;;;;;;9.12;99.79;100517.88;5134332;27;20414;-70
2021/10/16 07:49:27;;;;;;;25.95;15.23;;;;;;;9.32;95.68;100524.00;5134112;27;20065;-70
2021/10/16 07:51:55;;;;;;;21.85;14.00;;;;;;;9.55;92.73;100526.34;5133995;27;20035;-71
2021/10/16 07:54:24;;;;;;;21.80;13.48;;;;;;;9.78;90.53;100524.31;5133945;27;20035;-71
2021/10/16 07:56:53;;;;;;;20.60;13.00;;;;;;;9.69;90.56;100533.66;5133505;27;20045;-68
2021/10/16 07:59:21;;;;;;;28.20;14.30;;;;;;;9.71;91.08;100532.63;5133985;27;20400;-70
2021/10/16 08:01:50;;;;;;;23.17;13.90;;;;;;;9.83;91.87;100528.44;5133706;27;20040;-71
2021/10/16 08:04:18;;;;;;;22.48;14.38;;;;;;;10.10;90.38;100534.09;5133026;27;20443;-72
2021/10/16 08:06:46;;;;;;;22.75;14.80;;;;;;;10.12;90.64;100529.56;5133489;27;20055;-69
2021/10/16 08:09:14;;;;;;;22.25;14.50;;;;;;;10.28;90.27;100537.63;5133657;27;20035;-68
2021/10/16 08:11:43;;;;;;;22.63;13.60;;;;;;;10.38;88.47;100543.31;5133373;27;20187;-69
2021/10/16 08:14:12;;;;;;;24.52;14.10;;;;;;;10.37;88.23;100541.59;5133858;27;20091;-69
2021/10/16 08:16:40;;;;;;;18.63;12.25;;;;;;;10.51;85.82;100537.22;5133300;27;20039;-69
2021/10/16 08:19:08;;;;;;;19.80;12.98;;;;;;;10.43;86.49;100549.28;5133766;27;20050;-69
2021/10/16 08:21:36;;;;;;;19.73;12.43;;;;;;;10.42;86.78;100547.53;5133691;27;20043;-75
2021/10/16 08:24:07;;;;;;;20.95;12.90;;;;;;;10.34;87.24;100547.09;5133509;27;20036;-69
2021/10/16 08:26:35;;;;;;;20.88;13.50;;;;;;;10.32;87.86;100549.84;5133752;27;20047;-69
2021/10/16 08:29:04;;;;;;;20.00;12.82;;;;;;;10.34;87.05;100549.78;5133602;27;20094;-69
2021/10/16 08:31:35;;;;;;;19.63;12.70;;;;;;;10.28;87.92;100551.81;5133590;27;20123;-69
2021/10/16 08:34:03;;;;;;;18.33;11.68;;;;;;;10.47;85.82;100558.81;5133335;27;20099;-69
2021/10/16 08:36:31;;;;;;;17.83;11.23;;;;;;;10.39;86.18;100553.91;5133051;27;20054;-69
2021/10/16 08:39:00;;;;;;;17.85;11.55;;;;;;;10.31;87.03;100554.31;5133201;27;20480;-69
2021/10/16 08:41:28;;;;;;;15.73;9.88;;;;;;;10.24;85.43;100555.59;5133010;27;20043;-69
2021/10/16 08:43:56;;;;;;;17.98;10.05;;;;;;;10.39;85.81;100555.69;5133171;27;20101;-69
2021/10/16 08:46:25;;;;;;;19.23;10.27;;;;;;;10.46;85.34;100559.75;5133142;27;20065;-69
2021/10/16 08:48:55;;;;;;;15.68;10.80;;;;;;;10.52;85.14;100557.63;5132528;27;20047;-69
2021/10/16 08:51:23;;;;;;;16.17;10.50;;;;;;;10.48;84.78;100557.88;5132444;27;20043;-69
2021/10/16 08:53:52;;;;;;;17.95;10.68;;;;;;;10.32;86.28;100557.84;5132044;27;20111;-69
2021/10/16 08:56:22;;;;;;;17.30;10.52;;;;;;;10.17;88.04;100556.84;5130481;27;20127;-69
2021/10/16 08:58:52;;;;;;;16.77;10.20;;;;;;;10.19;88.49;100560.28;5131492;27;20159;-69
2021/10/16 09:01:20;;;;;;;14.68;9.70;;;;;;;10.34;86.16;100555.09;5131655;27;20039;-69
2021/10/16 09:03:50;;;;;;;17.58;9.80;;;;;;;10.61;85.14;100556.22;5131972;27;20069;-69
2021/10/16 09:06:25;;;;;;;16.38;10.07;;;;;;;10.65;85.47;100552.47;5132863;27;20065;-69
2021/10/16 09:08:55;;;;;;;15.63;9.85;;;;;;;10.87;85.29;100552.13;5132514;27;20066;-69
2021/10/16 09:11:29;;;;;;;17.85;9.02;;;;;;;11.07;83.61;100557.19;5131194;27;20138;-69
2021/10/16 09:14:00;;;;;;;17.45;8.75;;;;;;;11.27;83.59;100556.03;5132371;27;20388;-69
2021/10/16 09:16:32;;;;;;;13.70;9.40;;;;;;;11.24;83.40;100556.22;5132880;27;20441;-69
2021/10/16 09:19:04;;;;;;;12.68;8.57;;;;;;;11.33;82.69;100561.03;5132648;27;20510;-69
2021/10/16 09:21:34;;;;;;;15.40;9.37;;;;;;;11.42;82.76;100554.28;5132753;27;20073;-69
2021/10/16 09:24:08;;;;;;;12.85;8.55;;;;;;;11.44;83.53;100552.38;5132333;27;20095;-70
2021/10/16 09:26:37;;;;;;;15.73;9.15;;;;;;;11.54;83.81;100552.69;5132517;27;20548;-69
2021/10/16 09:29:07;;;;;;;15.70;8.60;;;;;;;11.49;84.25;100550.31;5132540;27;20043;-69
2021/10/16 09:31:39;;;;;;;14.57;9.10;;;;;;;11.62;84.11;100548.63;5132229;27;20126;-69
2021/10/16 09:34:09;;;;;;;14.93;9.45;;;;;;;11.86;82.95;100548.09;5132609;27;20047;-69
2021/10/16 09:36:40;;;;;;;14.70;9.10;;;;;;;11.72;83.90;100547.09;5132620;27;20051;-69
2021/10/16 09:39:16;;;;;;;13.15;8.75;;;;;;;11.74;84.44;100552.34;5132412;27;20483;-69
2021/10/16 09:41:46;;;;;;;15.32;8.85;;;;;;;11.62;84.46;100553.09;5131996;27;20518;-69
2021/10/16 09:44:23;;;;;;;12.75;7.88;;;;;;;11.89;83.30;100553.28;5132746;27;20043;-69
2021/10/16 09:47:06;;;;;;;14.75;8.02;;;;;;;12.12;81.25;100552.72;5132197;27;20043;-70
2021/10/16 09:49:37;;;;;;;10.70;6.90;;;;;;;12.07;81.27;100559.34;5132366;27;20069;-69
2021/10/16 09:52:08;;;;;;;8.85;6.20;;;;;;;12.26;80.55;100560.78;5132339;27;20274;-69
2021/10/16 09:54:37;;;;;;;9.25;5.95;;;;;;;12.32;80.74;100559.50;5132421;28;20483;-67
2021/10/16 09:57:07;;;;;;;9.40;5.63;;;;;;;12.54;79.44;100562.53;5131898;27;20043;-72
2021/10/16 09:59:37;;;;;;;9.27;5.55;;;;;;;12.55;79.45;100560.75;5139202;27;20040;-69
2021/10/16 10:02:06;;;;;;;9.45;5.55;;;;;;;12.58;79.20;100564.09;5133014;27;20068;-69
2021/10/16 10:04:37;;;;;;;10.57;6.78;;;;;;;12.63;78.95;100561.09;5139954;27;20043;-68
2021/10/16 10:07:07;;;;;;;8.68;5.80;;;;;;;12.57;79.01;100562.38;5132640;27;20035;-72
2021/10/16 10:09:39;;;;;;;9.75;5.50;;;;;;;12.60;78.94;100561.31;5132164;27;20039;-68
2021/10/16 10:12:08;;;;;;;10.38;5.82;;;;;;;12.63;79.17;100560.25;5131321;27;20071;-68
2021/10/16 10:14:39;;;;;;;9.88;6.07;;;;;;;12.49;78.76;100553.97;5132055;27;20472;-68
2021/10/16 10:17:09;;;;;;;8.73;5.68;;;;;;;12.71;78.10;100555.28;5131440;27;20068;-68
2021/10/16 10:19:39;;;;;;;8.68;5.63;;;;;;;12.72;78.38;100554.31;5132152;27;20202;-68
2021/10/16 10:22:16;;;;;;;11.32;6.07;;;;;;;12.79;78.12;100543.13;5131911;27;20445;-67
2021/10/16 10:24:46;;;;;;;9.13;5.82;;;;;;;12.81;77.84;100548.38;5131569;27;20035;-74
2021/10/16 10:27:16;;;;;;;10.00;6.47;;;;;;;12.74;78.28;100555.06;5133336;27;20047;-69
2021/10/16 10:29:47;;;;;;;9.52;6.30;;;;;;;12.86;78.54;100554.28;5134725;27;20337;-68
2021/10/16 10:32:17;;;;;;;11.00;6.30;;;;;;;12.72;78.58;100547.13;5135034;27;20055;-69
2021/10/16 10:34:55;;;;;;;9.73;6.45;;;;;;;12.58;79.06;100547.16;5135213;27;20078;-75
2021/10/16 10:37:30;;;;;;;9.82;5.68;;;;;;;12.72;77.71;100543.59;5135468;27;20183;-68
2021/10/16 10:39:59;;;;;;;11.23;6.00;;;;;;;12.55;78.57;100542.03;5135326;27;20051;-73
2021/10/16 10:42:50;;;;;;;9.77;6.82;;;;;;;12.42;79.36;100536.56;5135572;27;20438;-68
2021/10/16 10:45:23;;;;;;;11.75;6.47;;;;;;;12.28;80.44;100534.78;5135598;27;20403;-68
2021/10/16 10:47:59;;;;;;;;;;;;;;;12.72;79.16;100532.91;5135646;27;20079;-68
2021/10/16 10:50:56;;;;;;;11.80;6.20;;;;;;;12.82;78.11;100528.66;5135784;27;19938;-68
2021/10/16 10:53:35;;;;;;;10.20;6.47;;;;;;;12.92;78.29;100524.41;5100162;27;20059;-68
2021/10/16 10:56:05;;;;;;;10.07;5.82;;;;;;;13.15;77.17;100521.09;5135835;27;20054;-68
2021/10/16 10:58:58;;;;;;;10.70;5.65;;;;;;;13.15;76.07;100525.59;5135889;27;20039;-67
2021/10/16 11:01:57;;;;;;;11.93;5.63;;;;;;;13.01;77.15;100521.13;5135681;27;20054;-68
2021/10/16 11:04:49;;;;;;;11.40;6.25;;;;;;;13.07;76.05;100525.25;5135352;27;20032;-70
2021/10/16 11:07:32;;;;;;;10.10;6.30;;;;;;;12.74;78.63;100522.94;5132005;27;20058;-68
2021/10/16 11:10:01;;;;;;;8.98;5.93;;;;;;;12.53;79.26;100512.66;5134719;27;20043;-68
2021/10/16 11:12:31;;;;;;;10.88;5.75;;;;;;;12.78;79.55;100517.31;5135041;27;20055;-69
2021/10/16 11:15:01;;;;;;;11.27;6.10;;;;;;;12.89;78.00;100516.59;5134406;27;20421;-70
2021/10/16 11:17:40;;;;;;;9.70;6.38;;;;;;;12.68;78.48;100509.97;5136965;27;20134;-69
2021/10/16 11:20:13;;;;;;;10.13;5.80;;;;;;;12.53;79.58;100507.31;5150696;27;20049;-71
2021/10/16 11:22:47;;;;;;;9.52;5.72;;;;;;;12.69;79.20;100504.53;5135006;27;20035;-67
2021/10/16 11:25:19;;;;;;;11.15;6.15;;;;;;;12.92;79.09;100497.66;5134870;27;20049;-69